createdAt,value
2019-02-21T00:00:48.370Z,98.30
2019-02-21T00:04:52.639Z,98.30
2019-02-21T00:08:56.843Z,98.30
2019-02-21T00:13:01.079Z,98.30
2019-02-21T00:17:05.263Z,98.30
2019-02-21T00:21:09.463Z,98.30
2019-02-21T00:25:13.687Z,98.30
2019-02-21T00:29:17.890Z,98.30
2019-02-21T00:33:22.133Z,98.40
2019-02-21T00:37:26.318Z,98.40
2019-02-21T00:41:30.603Z,98.50
2019-02-21T00:45:34.832Z,98.40
2019-02-21T00:49:39.040Z,98.40
2019-02-21T00:53:43.320Z,98.40
2019-02-21T00:57:47.541Z,98.50
2019-02-21T01:01:51.731Z,98.50
2019-02-21T01:05:55.935Z,98.60
2019-02-21T01:10:00.327Z,98.70
2019-02-21T01:14:04.766Z,98.60
2019-02-21T01:18:08.994Z,98.50
2019-02-21T01:22:13.297Z,98.50
2019-02-21T01:26:17.534Z,98.60
2019-02-21T01:30:21.658Z,98.60
2019-02-21T01:34:25.855Z,98.70
2019-02-21T01:38:30.574Z,98.80
2019-02-21T01:42:34.750Z,98.90
2019-02-21T01:46:38.958Z,98.80
2019-02-21T01:50:43.154Z,98.80
2019-02-21T01:54:47.758Z,98.70
2019-02-21T01:58:51.890Z,98.80
2019-02-21T02:02:56.179Z,98.80
2019-02-21T02:07:00.378Z,99.10
2019-02-21T02:11:04.591Z,99.10
2019-02-21T02:15:09.038Z,99.30
2019-02-21T02:19:13.251Z,99.20
2019-02-21T02:23:17.525Z,99.20
2019-02-21T02:27:21.726Z,99.20
2019-02-21T02:31:25.850Z,99.50
2019-02-21T02:35:30.073Z,99.20
2019-02-21T02:39:34.271Z,99.20
2019-02-21T02:43:38.442Z,99.20
2019-02-21T02:47:42.577Z,99.30
2019-02-21T02:51:46.882Z,99.40
2019-02-21T02:55:51.013Z,99.50
2019-02-21T02:59:55.163Z,99.40
2019-02-21T03:03:59.343Z,99.50
2019-02-21T03:08:03.536Z,99.60
2019-02-21T03:12:07.735Z,99.40
2019-02-21T03:16:11.926Z,99.40
2019-02-21T03:20:16.159Z,99.40
2019-02-21T03:24:20.371Z,99.40
2019-02-21T03:28:24.563Z,99.50
2019-02-21T03:32:28.760Z,99.30
2019-02-21T03:36:32.960Z,99.30
2019-02-21T03:40:37.175Z,99.30
2019-02-21T03:44:41.354Z,99.40
2019-02-21T03:48:45.558Z,99.40
2019-02-21T03:52:49.768Z,99.40
2019-02-21T03:56:53.972Z,99.40
2019-02-21T04:00:58.201Z,99.50
2019-02-21T04:05:02.370Z,99.60
2019-02-21T04:09:08.887Z,99.30
2019-02-21T04:13:15.169Z,99.50
2019-02-21T04:17:19.039Z,99.60
2019-02-21T04:21:23.235Z,99.70
2019-02-21T04:25:27.441Z,99.80
2019-02-21T04:29:33.648Z,99.80
2019-02-21T04:33:37.954Z,99.90
2019-02-21T04:37:42.139Z,99.90
2019-02-21T04:41:46.355Z,99.90
2019-02-21T04:45:50.515Z,99.90
2019-02-21T04:49:54.723Z,99.90
2019-02-21T04:54:02.094Z,99.90
2019-02-21T04:58:06.301Z,99.90
2019-02-21T05:02:10.496Z,99.90
2019-02-21T05:06:14.674Z,99.90
2019-02-21T05:10:18.883Z,99.90
2019-02-21T05:14:23.087Z,99.90
2019-02-21T05:18:27.278Z,99.90
2019-02-21T05:22:31.482Z,99.90
2019-02-21T05:26:40.605Z,99.90
2019-02-21T05:30:45.513Z,99.90
2019-02-21T05:34:55.210Z,99.90
2019-02-21T05:39:36.917Z,99.90
2019-02-21T05:44:12.246Z,99.90
2019-02-21T05:48:34.167Z,99.90
2019-02-21T05:53:00.685Z,99.90
2019-02-21T05:57:23.996Z,99.90
2019-02-21T06:01:53.570Z,99.90
2019-02-21T06:06:22.930Z,99.90
2019-02-21T06:10:45.636Z,99.90
2019-02-21T06:14:56.747Z,99.90
2019-02-21T06:19:17.966Z,99.90
2019-02-21T06:23:40.287Z,99.90
2019-02-21T06:27:50.255Z,99.90
2019-02-21T06:31:54.433Z,99.90
2019-02-21T06:35:58.662Z,99.90
2019-02-21T06:40:02.951Z,99.90
2019-02-21T06:44:07.189Z,99.90
2019-02-21T06:48:11.358Z,99.90
2019-02-21T06:52:15.791Z,99.90
2019-02-21T06:56:20.027Z,99.90
2019-02-21T07:00:24.225Z,99.90
2019-02-21T07:04:28.430Z,99.90
2019-02-21T07:08:32.622Z,99.90
2019-02-21T07:12:36.735Z,99.90
2019-02-21T07:16:40.946Z,99.90
2019-02-21T07:20:45.159Z,99.90
2019-02-21T07:24:54.080Z,99.90
2019-02-21T07:28:58.489Z,99.90
2019-02-21T07:33:02.748Z,99.90
2019-02-21T07:37:17.749Z,99.90
2019-02-21T07:41:12.939Z,99.90
2019-02-21T07:45:17.088Z,99.90
2019-02-21T07:49:21.277Z,99.90
2019-02-21T07:53:25.443Z,99.90
2019-02-21T07:57:29.668Z,99.90
2019-02-21T08:01:33.865Z,99.90
2019-02-21T08:05:38.071Z,99.90
2019-02-21T08:09:42.256Z,99.90
2019-02-21T08:13:46.435Z,99.90
2019-02-21T08:17:50.630Z,99.90
2019-02-21T08:21:54.834Z,99.90
2019-02-21T08:25:59.057Z,99.90
2019-02-21T08:30:03.491Z,99.90
2019-02-21T08:34:15.039Z,99.90
2019-02-21T08:38:19.240Z,99.90
2019-02-21T08:42:23.468Z,99.90
2019-02-21T08:46:27.680Z,99.90
2019-02-21T08:50:31.871Z,99.90
2019-02-21T08:54:36.049Z,99.90
2019-02-21T08:58:40.271Z,99.90
2019-02-21T09:02:44.615Z,99.90
2019-02-21T09:06:48.911Z,99.90
2019-02-21T09:10:53.216Z,99.90
2019-02-21T09:14:57.402Z,99.90
2019-02-21T09:19:01.601Z,99.90
2019-02-21T09:23:05.811Z,99.90
2019-02-21T09:27:10.022Z,99.90
2019-02-21T09:31:14.223Z,99.90
2019-02-21T09:35:18.397Z,99.90
2019-02-21T09:39:22.602Z,99.90
2019-02-21T09:43:26.807Z,99.90
2019-02-21T09:47:31.242Z,99.90
2019-02-21T09:51:36.668Z,99.90
2019-02-21T09:55:41.086Z,99.90
2019-02-21T09:59:45.277Z,99.90
2019-02-21T10:03:49.504Z,99.90
2019-02-21T10:07:53.698Z,99.90
2019-02-21T10:11:59.120Z,99.90
2019-02-21T10:16:04.831Z,99.90
2019-02-21T10:20:11.539Z,99.90
2019-02-21T10:24:15.774Z,99.90
2019-02-21T10:28:19.970Z,99.90
2019-02-21T10:32:24.183Z,99.90
2019-02-21T10:36:28.364Z,99.90
2019-02-21T10:40:33.390Z,99.90
2019-02-21T10:44:37.687Z,99.90
2019-02-21T10:48:41.905Z,99.90
2019-02-21T10:52:46.143Z,99.90
2019-02-21T10:56:58.008Z,99.90
2019-02-21T11:01:02.207Z,99.90
2019-02-21T11:05:07.118Z,99.90
2019-02-21T11:09:19.956Z,99.90
2019-02-21T11:13:24.163Z,99.90
2019-02-21T11:17:28.370Z,99.90
2019-02-21T11:21:32.563Z,99.90
2019-02-21T11:25:36.822Z,99.90
2019-02-21T11:29:41.062Z,99.90
2019-02-21T11:33:45.265Z,99.90
2019-02-21T11:37:49.645Z,99.90
2019-02-21T11:41:54.061Z,99.90
2019-02-21T11:45:58.264Z,99.90
2019-02-21T11:50:02.462Z,99.90
2019-02-21T11:54:06.666Z,99.90
2019-02-21T11:58:10.783Z,99.90
2019-02-21T12:02:15.066Z,99.90
2019-02-21T12:06:19.280Z,99.90
2019-02-21T12:10:23.555Z,99.90
2019-02-21T12:14:27.683Z,99.90
2019-02-21T12:18:31.883Z,99.90
2019-02-21T12:22:36.185Z,99.90
2019-02-21T12:26:40.402Z,99.90
2019-02-21T12:31:03.753Z,99.90
2019-02-21T12:35:08.222Z,99.90
2019-02-21T12:39:12.565Z,99.90
2019-02-21T12:43:16.773Z,99.90
2019-02-21T12:47:20.974Z,99.90
2019-02-21T12:51:26.268Z,99.90
2019-02-21T12:55:31.763Z,99.90
2019-02-21T12:59:36.042Z,99.90
2019-02-21T13:03:40.190Z,99.90
2019-02-21T13:07:44.397Z,99.90
2019-02-21T13:11:48.594Z,99.90
2019-02-21T13:15:52.796Z,99.90
2019-02-21T13:19:57.000Z,99.90
2019-02-21T13:24:01.242Z,99.90
2019-02-21T13:28:05.449Z,99.90
2019-02-21T13:32:09.705Z,99.90
2019-02-21T13:36:13.855Z,99.90
2019-02-21T13:40:21.008Z,99.90
2019-02-21T13:44:23.907Z,99.90
2019-02-21T13:48:28.085Z,99.90
2019-02-21T13:52:32.212Z,99.90
2019-02-21T13:56:36.403Z,99.90
2019-02-21T14:00:40.674Z,99.90
2019-02-21T14:04:45.104Z,99.90
2019-02-21T14:08:49.269Z,99.90
2019-02-21T14:12:53.469Z,99.90
2019-02-21T14:16:57.682Z,99.90
2019-02-21T14:21:01.928Z,99.90
2019-02-21T14:25:06.665Z,99.90
2019-02-21T14:29:10.846Z,99.90
2019-02-21T14:33:17.386Z,99.90
2019-02-21T14:37:20.939Z,99.90
2019-02-21T14:41:25.146Z,99.90
2019-02-21T14:45:29.358Z,99.90
2019-02-21T14:49:33.554Z,99.90
2019-02-21T14:53:37.754Z,99.90
2019-02-21T14:57:41.899Z,99.90
2019-02-21T15:01:46.233Z,99.90
2019-02-21T15:05:50.453Z,99.90
2019-02-21T15:09:54.626Z,99.90
2019-02-21T15:13:58.827Z,99.90
2019-02-21T15:18:07.476Z,99.90
2019-02-21T15:22:08.890Z,99.90
2019-02-21T15:26:13.039Z,99.90
2019-02-21T15:30:18.445Z,99.90
2019-02-21T15:34:22.814Z,99.90
2019-02-21T15:38:27.022Z,99.90
2019-02-21T15:42:31.226Z,99.90
2019-02-21T15:46:35.434Z,99.90
2019-02-21T15:50:39.607Z,99.90
2019-02-21T15:54:43.846Z,99.90
2019-02-21T15:58:47.995Z,99.90
2019-02-21T16:02:52.212Z,99.90
2019-02-21T16:06:56.422Z,99.90
2019-02-21T16:11:00.590Z,99.90
2019-02-21T16:15:05.263Z,99.90
2019-02-21T16:19:09.459Z,99.90
2019-02-21T16:23:13.658Z,99.90
2019-02-21T16:27:17.800Z,99.90
2019-02-21T16:31:22.041Z,99.90
2019-02-21T16:35:27.353Z,99.90
2019-02-21T16:39:31.759Z,99.90
2019-02-21T16:43:36.029Z,99.90
2019-02-21T16:47:40.372Z,99.90
2019-02-21T16:51:44.553Z,99.90
2019-02-21T16:55:48.746Z,99.90
2019-02-21T16:59:52.861Z,99.90
2019-02-21T17:03:57.086Z,99.90
2019-02-21T17:08:01.450Z,99.90
2019-02-21T17:12:05.641Z,99.90
2019-02-21T17:16:09.853Z,99.90
2019-02-21T17:20:15.082Z,99.90
2019-02-21T17:24:19.338Z,99.90
2019-02-21T17:28:23.534Z,99.90
2019-02-21T17:32:27.642Z,99.90
2019-02-21T17:36:32.774Z,99.90
2019-02-21T17:40:37.243Z,99.90
2019-02-21T17:44:41.561Z,99.90
2019-02-21T17:48:46.778Z,99.90
2019-02-21T17:52:51.135Z,99.90
2019-02-21T17:56:55.338Z,99.90
2019-02-21T18:00:59.571Z,99.90
2019-02-21T18:05:03.754Z,99.90
2019-02-21T18:09:08.378Z,99.90
2019-02-21T18:13:12.616Z,99.90
2019-02-21T18:17:17.112Z,99.90
2019-02-21T18:21:21.315Z,99.90
2019-02-21T18:25:37.827Z,99.90
2019-02-21T18:29:43.799Z,99.90
2019-02-21T18:33:48.107Z,99.90
2019-02-21T18:37:52.299Z,99.90
2019-02-21T18:41:56.510Z,99.90
2019-02-21T18:46:00.740Z,99.90
2019-02-21T18:50:09.886Z,99.90
2019-02-21T18:54:14.232Z,99.90
2019-02-21T18:58:18.475Z,99.90
2019-02-21T19:02:22.826Z,99.90
2019-02-21T19:06:27.007Z,99.90
2019-02-21T19:10:31.294Z,99.90
2019-02-21T19:14:35.618Z,99.90
2019-02-21T19:18:39.896Z,99.90
2019-02-21T19:22:47.770Z,99.90
2019-02-21T19:26:52.086Z,99.90
2019-02-21T19:31:04.466Z,99.90
2019-02-21T19:35:28.490Z,99.90
2019-02-21T19:39:33.368Z,99.90
2019-02-21T19:43:37.797Z,99.90
2019-02-21T19:47:42.203Z,99.90
2019-02-21T19:51:46.758Z,99.90
2019-02-21T19:55:51.201Z,99.90
2019-02-21T19:59:55.677Z,99.90
2019-02-21T20:03:59.953Z,99.90
2019-02-21T20:08:08.520Z,99.90
2019-02-21T20:12:10.656Z,99.90
2019-02-21T20:16:15.312Z,99.90
2019-02-21T20:20:19.520Z,99.90
2019-02-21T20:24:23.759Z,99.90
2019-02-21T20:28:27.963Z,99.90
2019-02-21T20:32:32.192Z,99.90
2019-02-21T20:36:36.798Z,99.90
2019-02-21T20:40:41.030Z,99.90
2019-02-21T20:44:45.239Z,99.90
2019-02-21T20:48:49.857Z,99.90
2019-02-21T20:52:54.245Z,99.90
2019-02-21T20:56:58.454Z,99.90
2019-02-21T21:01:03.133Z,99.90
2019-02-21T21:05:07.745Z,99.90
2019-02-21T21:09:11.959Z,99.90
2019-02-21T21:13:16.163Z,99.90
2019-02-21T21:17:20.375Z,99.90
2019-02-21T21:21:24.573Z,99.90
2019-02-21T21:25:28.838Z,99.90
2019-02-21T21:29:33.074Z,99.90
2019-02-21T21:33:38.268Z,99.90
2019-02-21T21:37:42.559Z,99.90
2019-02-21T21:41:46.900Z,99.90
2019-02-21T21:45:51.089Z,99.90
2019-02-21T21:49:55.309Z,99.90
2019-02-21T21:53:59.657Z,99.90
2019-02-21T21:58:03.795Z,99.90
2019-02-21T22:02:08.144Z,99.90
2019-02-21T22:06:13.772Z,99.90
2019-02-21T22:10:18.576Z,99.90
2019-02-21T22:14:22.875Z,99.90
2019-02-21T22:18:27.090Z,99.90
2019-02-21T22:22:32.590Z,99.90
2019-02-21T22:26:36.866Z,99.90
2019-02-21T22:30:41.198Z,99.90
2019-02-21T22:34:45.532Z,99.90
2019-02-21T22:38:49.826Z,99.90
2019-02-21T22:42:55.670Z,99.90
2019-02-21T22:47:00.041Z,99.90
2019-02-21T22:51:04.281Z,99.90
2019-02-21T22:55:10.179Z,99.90
2019-02-21T22:59:14.775Z,99.90
2019-02-21T23:03:19.155Z,99.90
2019-02-21T23:07:59.670Z,99.90
2019-02-21T23:12:04.237Z,99.90
2019-02-21T23:16:08.721Z,99.90
2019-02-21T23:20:13.309Z,99.90
2019-02-21T23:24:17.698Z,99.90
2019-02-21T23:28:22.170Z,99.90
2019-02-21T23:32:26.394Z,99.90
2019-02-21T23:36:31.024Z,99.90
2019-02-21T23:40:37.030Z,99.90
2019-02-21T23:44:41.499Z,99.90
2019-02-21T23:48:46.118Z,99.90
2019-02-21T23:52:51.979Z,99.90
2019-02-21T23:56:56.422Z,99.90
